Time;durP1;ratioP1;P1;durP2;ratioP2;P2;SDS_P1;SDS_P2;PMS_P1;PMS_P2;Temp;Humidity;BMP_temperature;BMP_pressure;BME280_temperature;BME280_humidity;BME280_pressure;Samples;Min_cycle;Max_cycle;Signal;HPM_P1;HPM_P2
2023/06/12 00:02:13;;;;;;;59.83;54.17;;;;;;;18.83;100.00;100550.69;5014635;28;20350;-85
2023/06/12 00:04:44;;;;;;;60.22;54.33;;;;;;;18.68;100.00;100548.72;5000449;28;20425;-85
2023/06/12 00:07:11;;;;;;;62.67;56.55;;;;;;;18.35;100.00;100549.94;4996414;28;20753;-85
2023/06/12 00:09:38;;;;;;;63.05;56.83;;;;;;;18.49;100.00;100545.72;4996453;28;20514;-84
2023/06/12 00:12:06;;;;;;;60.60;54.80;;;;;;;18.38;100.00;100552.09;5010967;28;20042;-85
2023/06/12 00:14:33;;;;;;;60.58;54.35;;;;;;;18.33;100.00;100551.25;5015395;28;20469;-84
2023/06/12 00:17:10;;;;;;;57.35;51.95;;;;;;;18.20;100.00;100553.34;5015474;28;20058;-85
2023/06/12 00:19:47;;;;;;;62.72;56.67;;;;;;;18.33;100.00;100549.38;5014670;28;20068;-85
2023/06/12 00:22:14;;;;;;;63.10;57.40;;;;;;;18.17;100.00;100556.56;5015341;28;20498;-85
2023/06/12 00:24:41;;;;;;;56.50;50.80;;;;;;;18.14;100.00;100554.41;5010877;28;20042;-85
2023/06/12 00:27:08;;;;;;;58.42;52.85;;;;;;;18.08;100.00;100544.69;5014546;28;20073;-84
2023/06/12 00:29:35;;;;;;;60.67;54.90;;;;;;;18.24;100.00;100553.63;5015239;28;20157;-84
2023/06/12 00:32:15;;;;;;;65.82;59.75;;;;;;;18.14;100.00;100569.72;5012561;28;20062;-84
2023/06/12 00:34:42;;;;;;;65.97;60.03;;;;;;;18.04;100.00;100559.72;5008064;28;20050;-84
2023/06/12 00:37:12;;;;;;;64.85;58.83;;;;;;;18.08;100.00;100566.19;5011443;28;20054;-85
2023/06/12 00:39:39;;;;;;;66.38;60.13;;;;;;;18.06;100.00;100554.88;5007308;28;20045;-84
2023/06/12 00:42:13;;;;;;;65.32;59.33;;;;;;;17.99;100.00;100565.03;4999144;28;20053;-85
2023/06/12 00:44:40;;;;;;;62.45;56.55;;;;;;;18.08;100.00;100568.88;5000876;28;20583;-84
2023/06/12 00:47:17;;;;;;;66.30;60.10;;;;;;;18.11;100.00;100573.72;5011841;28;20096;-84
2023/06/12 00:49:44;;;;;;;78.65;71.82;;;;;;;18.23;100.00;100568.97;4995915;28;20064;-85
2023/06/12 00:52:13;;;;;;;63.20;57.22;;;;;;;18.31;100.00;100568.47;5007751;28;20046;-84
2023/06/12 00:54:56;;;;;;;69.95;63.63;;;;;;;18.20;100.00;100577.53;5012134;28;20046;-84
2023/06/12 00:57:44;;;;;;;76.72;70.07;;;;;;;18.40;100.00;100571.47;5008537;28;20053;-85
2023/06/12 01:00:12;;;;;;;73.55;67.10;;;;;;;18.28;100.00;100566.31;5002884;28;20499;-78
2023/06/12 01:03:04;;;;;;;78.75;71.75;;;;;;;18.34;100.00;100569.84;4995734;28;20050;-78
2023/06/12 01:05:47;;;;;;;67.50;61.35;;;;;;;18.44;100.00;100563.69;4993824;28;20050;-79
2023/06/12 01:08:32;;;;;;;78.75;71.45;;;;;;;18.68;100.00;100561.38;4998506;28;20490;-78
2023/06/12 01:11:03;;;;;;;66.82;60.38;;;;;;;18.28;100.00;100568.19;4994454;28;20057;-78
2023/06/12 01:13:33;;;;;;;63.40;57.25;;;;;;;18.35;100.00;100567.94;5004870;28;20050;-78
2023/06/12 01:16:00;;;;;;;70.72;64.35;;;;;;;18.23;100.00;100563.59;5004976;28;20552;-78
2023/06/12 01:18:29;;;;;;;73.13;66.22;;;;;;;17.95;100.00;100569.34;5003740;28;20046;-78
2023/06/12 01:21:01;;;;;;;67.90;61.45;;;;;;;17.87;100.00;100577.84;5000050;28;20514;-78
2023/06/12 01:23:48;;;;;;;67.20;60.25;;;;;;;17.87;100.00;100578.66;5002928;28;20100;-78
2023/06/12 01:26:36;;;;;;;70.28;63.55;;;;;;;17.78;100.00;100582.91;5006636;28;20446;-78
2023/06/12 01:29:35;;;;;;;65.55;59.15;;;;;;;17.77;100.00;100576.72;5001251;28;20058;-85
2023/06/12 01:32:07;;;;;;;61.63;55.22;;;;;;;17.80;100.00;100580.78;4993562;28;20050;-84
2023/06/12 01:34:38;;;;;;;67.32;60.67;;;;;;;17.80;100.00;100586.13;4994513;28;20493;-85
2023/06/12 01:37:15;;;;;;;78.07;70.78;;;;;;;18.24;100.00;100573.25;4993405;28;20545;-85
2023/06/12 01:39:56;;;;;;;69.30;62.70;;;;;;;17.94;100.00;100579.25;4994717;28;20434;-78
2023/06/12 01:42:26;;;;;;;80.07;72.68;;;;;;;18.19;100.00;100589.38;4993348;28;20075;-79
2023/06/12 01:45:00;;;;;;;68.18;61.50;;;;;;;18.10;100.00;100588.25;4992818;28;20513;-78
2023/06/12 01:47:41;;;;;;;71.15;64.25;;;;;;;17.68;100.00;100591.66;4992740;28;20126;-79
2023/06/12 01:50:24;;;;;;;85.82;77.78;;;;;;;17.60;100.00;100594.78;4993095;28;20042;-78
2023/06/12 01:52:51;;;;;;;93.18;85.25;;;;;;;17.73;100.00;100594.41;4992954;28;20058;-78
2023/06/12 01:55:21;;;;;;;90.07;82.00;;;;;;;17.54;100.00;100595.81;4998759;28;20042;-78
2023/06/12 01:57:54;;;;;;;87.78;79.57;;;;;;;17.55;100.00;100600.94;5011534;28;20052;-84
2023/06/12 02:00:36;;;;;;;105.47;97.15;;;;;;;17.56;100.00;100596.38;5012163;28;20046;-78
2023/06/12 02:03:14;;;;;;;135.90;125.80;;;;;;;17.42;100.00;100597.84;5008807;28;20053;-78
2023/06/12 02:05:47;;;;;;;118.47;109.03;;;;;;;17.44;100.00;100614.53;5007193;28;20042;-78
2023/06/12 02:08:14;;;;;;;126.03;115.97;;;;;;;17.39;100.00;100605.34;5011651;28;20061;-78
2023/06/12 02:10:53;;;;;;;142.50;131.20;;;;;;;17.68;100.00;100615.81;5011961;28;20046;-78
2023/06/12 02:13:21;;;;;;;118.55;109.07;;;;;;;17.53;100.00;100621.06;4992907;28;20050;-78
2023/06/12 02:15:47;;;;;;;105.45;96.47;;;;;;;17.38;100.00;100616.34;4992403;28;20062;-78
2023/06/12 02:18:16;;;;;;;128.57;118.35;;;;;;;17.26;100.00;100618.38;4992302;28;20047;-78
2023/06/12 02:21:01;;;;;;;128.05;117.65;;;;;;;17.34;100.00;100625.97;4993197;28;20423;-84
2023/06/12 02:23:28;;;;;;;104.85;95.88;;;;;;;17.30;100.00;100625.66;5004207;28;20057;-84
2023/06/12 02:25:55;;;;;;;127.82;118.13;;;;;;;17.15;100.00;100618.25;5003723;28;20438;-84
2023/06/12 02:28:22;;;;;;;82.70;75.10;;;;;;;17.34;100.00;100628.66;4993423;28;20054;-84
2023/06/12 02:30:49;;;;;;;83.50;75.53;;;;;;;17.28;100.00;100627.81;4993453;28;20522;-84
2023/06/12 02:33:19;;;;;;;85.68;77.88;;;;;;;17.46;100.00;100631.19;5006971;28;20042;-84
2023/06/12 02:35:47;;;;;;;88.18;80.05;;;;;;;17.41;100.00;100631.94;5008870;28;20155;-84
2023/06/12 02:38:14;;;;;;;79.43;71.82;;;;;;;17.35;100.00;100632.97;5013102;28;20061;-84
2023/06/12 02:40:47;;;;;;;75.15;68.07;;;;;;;17.43;100.00;100645.94;5006337;28;20045;-84
2023/06/12 02:43:13;;;;;;;70.35;63.95;;;;;;;17.65;100.00;100643.19;5012167;28;20430;-84
2023/06/12 02:46:06;;;;;;;69.60;63.00;;;;;;;18.20;100.00;100643.94;5012928;28;20053;-84
2023/06/12 02:48:34;;;;;;;77.65;70.55;;;;;;;17.73;100.00;100655.34;5011480;28;20423;-85
2023/06/12 02:51:01;;;;;;;74.97;67.85;;;;;;;17.72;100.00;100656.41;4999904;28;20108;-84
2023/06/12 02:53:28;;;;;;;77.25;70.05;;;;;;;17.58;100.00;100656.03;4993083;28;20061;-85
2023/06/12 02:55:55;;;;;;;72.90;65.95;;;;;;;17.51;100.00;100645.47;5007199;28;20046;-84
2023/06/12 02:58:30;;;;;;;76.00;69.07;;;;;;;17.63;100.00;100651.50;5000500;28;20086;-85
2023/06/12 03:00:57;;;;;;;76.25;69.45;;;;;;;17.84;100.00;100649.03;5005353;28;20504;-84
2023/06/12 03:03:25;;;;;;;76.28;69.05;;;;;;;18.16;100.00;100654.41;4995853;28;20054;-78
2023/06/12 03:05:54;;;;;;;74.10;67.55;;;;;;;18.63;100.00;100656.28;4996235;28;20494;-78
2023/06/12 03:08:25;;;;;;;72.28;65.47;;;;;;;17.94;100.00;100661.72;4992065;28;20065;-78
2023/06/12 03:10:52;;;;;;;79.27;72.47;;;;;;;18.98;100.00;100647.63;4993603;28;20439;-79
2023/06/12 03:13:20;;;;;;;73.43;66.90;;;;;;;18.12;100.00;100655.97;4991391;28;20054;-78
2023/06/12 03:15:56;;;;;;;69.32;62.45;;;;;;;18.17;100.00;100668.66;4997233;28;20434;-79
2023/06/12 03:18:23;;;;;;;70.45;63.67;;;;;;;17.88;100.00;100671.63;5007439;28;20038;-78
2023/06/12 03:20:51;;;;;;;78.38;70.88;;;;;;;18.94;100.00;100662.69;5009463;28;20050;-78
2023/06/12 03:23:21;;;;;;;70.75;64.32;;;;;;;18.29;100.00;100663.88;5000923;28;20054;-86
2023/06/12 03:25:48;;;;;;;74.85;67.78;;;;;;;18.60;100.00;100670.25;4994882;28;20049;-78
2023/06/12 03:28:15;;;;;;;76.93;70.03;;;;;;;18.65;100.00;100664.91;5010984;28;20117;-78
2023/06/12 03:30:44;;;;;;;75.60;68.63;;;;;;;18.97;100.00;100664.84;5003219;28;20054;-78
2023/06/12 03:33:11;;;;;;;69.85;62.95;;;;;;;18.43;100.00;100661.56;4990967;28;20046;-78
2023/06/12 03:35:41;;;;;;;69.50;63.05;;;;;;;18.52;100.00;100670.78;4999946;28;20054;-78
2023/06/12 03:38:08;;;;;;;72.68;65.80;;;;;;;18.67;100.00;100670.03;5005144;28;20049;-85
2023/06/12 03:40:36;;;;;;;72.32;66.03;;;;;;;19.17;100.00;100679.44;5006740;28;20046;-78
2023/06/12 03:43:03;;;;;;;70.50;64.28;;;;;;;19.63;100.00;100676.88;4991357;28;20144;-78
2023/06/12 03:45:30;;;;;;;66.63;60.70;;;;;;;18.49;100.00;100680.16;4991384;28;20061;-78
2023/06/12 03:48:04;;;;;;;75.07;67.75;;;;;;;18.45;100.00;100679.03;4991859;28;20069;-86
2023/06/12 03:50:31;;;;;;;79.38;72.13;;;;;;;18.33;100.00;100680.31;4999038;28;20042;-84
2023/06/12 03:52:57;;;;;;;85.13;77.65;;;;;;;18.90;100.00;100690.38;5012168;28;20045;-85
2023/06/12 03:55:29;;;;;;;73.72;66.93;;;;;;;18.70;100.00;100686.47;5009428;28;20449;-78
2023/06/12 03:57:58;;;;;;;70.35;63.88;;;;;;;19.13;100.00;100687.25;5009821;28;20472;-78
2023/06/12 04:00:31;;;;;;;60.88;55.78;;;;;;;19.75;100.00;100690.13;5009375;28;20049;-78
2023/06/12 04:02:58;;;;;;;53.60;48.70;;;;;;;19.07;100.00;100685.59;4998387;28;20446;-78
2023/06/12 04:05:26;;;;;;;53.25;48.55;;;;;;;19.29;100.00;100677.34;4992714;28;20050;-78
2023/06/12 04:08:15;;;;;;;58.15;52.63;;;;;;;19.01;100.00;100691.25;5010699;28;20060;-78
2023/06/12 04:10:43;;;;;;;59.85;54.72;;;;;;;19.64;100.00;100690.13;4974775;28;20046;-78
2023/06/12 04:13:18;;;;;;;56.85;51.92;;;;;;;19.59;100.00;100694.66;4989844;28;20054;-78
2023/06/12 04:15:47;;;;;;;55.80;50.55;;;;;;;18.97;100.00;100690.94;4990814;28;20050;-78
2023/06/12 04:18:14;;;;;;;55.00;50.17;;;;;;;18.96;100.00;100692.81;4991115;28;20494;-78
2023/06/12 04:20:41;;;;;;;55.13;50.42;;;;;;;18.90;100.00;100696.56;5001648;28;20050;-78
2023/06/12 04:23:11;;;;;;;51.65;47.05;;;;;;;18.93;100.00;100696.03;5013893;28;20046;-79
2023/06/12 04:26:04;;;;;;;53.00;48.10;;;;;;;19.10;100.00;100701.22;5001046;28;20042;-78
2023/06/12 04:28:33;;;;;;;50.72;46.30;;;;;;;18.97;100.00;100691.75;4995578;28;20525;-78
2023/06/12 04:31:01;;;;;;;54.75;49.70;;;;;;;19.12;100.00;100696.41;5012761;28;20046;-78
2023/06/12 04:33:30;;;;;;;48.17;44.13;;;;;;;19.05;100.00;100695.81;5011711;28;20046;-78
2023/06/12 04:35:57;;;;;;;48.55;44.30;;;;;;;19.71;100.00;100703.31;4999093;28;20477;-79
2023/06/12 04:38:25;;;;;;;46.92;42.72;;;;;;;18.94;100.00;100692.28;4994673;28;20416;-78
2023/06/12 04:40:52;;;;;;;42.05;38.53;;;;;;;19.29;100.00;100698.88;4994248;28;20046;-78
2023/06/12 04:43:20;;;;;;;44.15;40.28;;;;;;;19.11;100.00;100700.16;4998843;28;20112;-78
2023/06/12 04:45:48;;;;;;;45.03;40.90;;;;;;;18.95;100.00;100704.66;5013664;28;20045;-78
2023/06/12 04:48:18;;;;;;;44.95;40.70;;;;;;;18.79;100.00;100708.34;5014570;28;20050;-85
2023/06/12 04:50:58;;;;;;;45.88;41.80;;;;;;;19.22;100.00;100717.16;5004284;28;20046;-84
2023/06/12 04:53:27;;;;;;;48.85;44.58;;;;;;;20.17;100.00;100713.34;5008429;28;20042;-78
2023/06/12 04:55:56;;;;;;;38.95;35.50;;;;;;;19.42;100.00;100716.41;5008443;28;20058;-78
2023/06/12 04:58:23;;;;;;;40.22;36.67;;;;;;;18.83;100.00;100720.22;5013658;28;20534;-78
2023/06/12 05:00:55;;;;;;;40.80;37.17;;;;;;;19.27;100.00;100714.47;5005618;28;20042;-78
2023/06/12 05:03:23;;;;;;;41.00;37.15;;;;;;;18.89;100.00;100712.97;5004394;28;20054;-78
2023/06/12 05:05:50;;;;;;;42.55;38.13;;;;;;;19.04;100.00;100726.50;5010865;28;20104;-78
2023/06/12 05:08:29;;;;;;;41.80;38.20;;;;;;;19.03;100.00;100716.78;5011545;28;20442;-78
2023/06/12 05:10:57;;;;;;;45.03;41.08;;;;;;;19.10;100.00;100730.03;4996054;28;20051;-78
2023/06/12 05:13:24;;;;;;;43.95;40.00;;;;;;;18.86;100.00;100733.13;4998618;28;20053;-84
2023/06/12 05:15:52;;;;;;;47.20;43.47;;;;;;;19.41;100.00;100733.66;4995869;28;20042;-75
2023/06/12 05:18:19;;;;;;;44.25;40.47;;;;;;;19.18;100.00;100721.44;5013015;28;20049;-84
2023/06/12 05:20:46;;;;;;;44.17;39.67;;;;;;;18.93;100.00;100735.59;5012834;28;20050;-86
2023/06/12 05:23:13;;;;;;;45.78;41.88;;;;;;;19.33;100.00;100737.66;4994745;28;20049;-85
2023/06/12 05:25:40;;;;;;;45.90;41.65;;;;;;;19.12;100.00;100734.09;5008647;28;20077;-84
2023/06/12 05:28:22;;;;;;;46.50;42.78;;;;;;;19.24;100.00;100728.47;5014066;28;20506;-85
2023/06/12 05:30:59;;;;;;;43.55;39.65;;;;;;;19.26;100.00;100741.69;5014037;28;20049;-84
2023/06/12 05:33:26;;;;;;;48.85;44.92;;;;;;;18.96;100.00;100743.94;5013841;28;20437;-85
2023/06/12 05:35:57;;;;;;;48.13;44.33;;;;;;;20.04;100.00;100739.75;5013353;28;20477;-78
2023/06/12 05:38:25;;;;;;;42.05;38.83;;;;;;;19.75;100.00;100738.63;5004195;28;20053;-79
2023/06/12 05:41:11;;;;;;;46.25;37.80;;;;;;;19.96;100.00;100745.66;5010293;28;20053;-78
2023/06/12 05:43:38;;;;;;;35.08;32.08;;;;;;;19.75;100.00;100747.50;5004281;28;20050;-78
2023/06/12 05:46:07;;;;;;;35.28;32.15;;;;;;;19.86;100.00;100737.56;4996906;28;20525;-78
2023/06/12 05:48:43;;;;;;;38.33;35.20;;;;;;;21.03;100.00;100737.50;4994236;28;20074;-85
2023/06/12 05:51:26;;;;;;;32.90;30.33;;;;;;;20.63;100.00;100751.09;4994558;28;20053;-86
2023/06/12 05:53:56;;;;;;;32.47;29.83;;;;;;;20.70;100.00;100735.44;5007334;28;20057;-86
2023/06/12 05:56:37;;;;;;;35.03;32.42;;;;;;;21.76;100.00;100732.63;5013775;28;20050;-85
2023/06/12 05:59:06;;;;;;;32.03;29.42;;;;;;;21.62;100.00;100732.41;4999697;28;20419;-85
2023/06/12 06:01:35;;;;;;;30.35;27.58;;;;;;;21.50;100.00;100730.03;4997099;28;20529;-84
2023/06/12 06:04:02;;;;;;;32.63;29.83;;;;;;;22.29;100.00;100735.47;5010496;28;20873;-78
2023/06/12 06:06:30;;;;;;;28.00;25.48;;;;;;;21.72;100.00;100729.63;5008659;28;20430;-78
2023/06/12 06:08:57;;;;;;;26.83;24.60;;;;;;;21.18;100.00;100736.66;5011836;28;20057;-78
2023/06/12 06:11:24;;;;;;;27.20;25.10;;;;;;;20.62;100.00;100736.78;5011091;28;20046;-78
2023/06/12 06:13:50;;;;;;;26.73;24.52;;;;;;;20.42;100.00;100737.59;4992317;28;20050;-78
2023/06/12 06:16:17;;;;;;;27.30;24.88;;;;;;;20.36;100.00;100735.97;5008948;28;20236;-85
2023/06/12 06:18:46;;;;;;;28.15;25.85;;;;;;;20.48;100.00;100738.38;5005647;28;20049;-83
2023/06/12 06:21:13;;;;;;;27.13;24.83;;;;;;;20.58;100.00;100730.34;5008043;28;20129;-86
2023/06/12 06:23:54;;;;;;;28.60;26.13;;;;;;;21.42;100.00;100727.91;5013409;28;20042;-84
2023/06/12 06:26:33;;;;;;;27.67;25.48;;;;;;;20.52;100.00;100726.84;5014441;28;20521;-86
2023/06/12 06:29:17;;;;;;;29.67;27.23;;;;;;;20.98;100.00;100725.91;5013148;28;20512;-78
2023/06/12 06:31:43;;;;;;;27.02;25.02;;;;;;;21.91;100.00;100719.00;5013634;28;20506;-86
2023/06/12 06:34:13;;;;;;;26.27;23.67;;;;;;;20.38;100.00;100733.03;5013042;28;20077;-87
2023/06/12 06:37:06;;;;;;;27.27;25.25;;;;;;;21.18;100.00;100725.84;5013439;28;20104;-87
2023/06/12 06:39:33;;;;;;;;;;;;;;;20.75;100.00;100730.03;5009051;28;20050;-78
2023/06/12 06:42:00;;;;;;;24.80;22.73;;;;;;;20.60;100.00;100736.25;5008790;28;19921;-78
2023/06/12 06:44:26;;;;;;;26.52;24.50;;;;;;;20.55;100.00;100739.78;4992816;28;20065;-78
2023/06/12 06:46:56;;;;;;;29.13;26.40;;;;;;;21.17;100.00;100729.63;4992015;28;20065;-78
2023/06/12 06:49:27;;;;;;;26.02;23.88;;;;;;;20.84;100.00;100736.47;4993083;28;20133;-86
2023/06/12 06:52:00;;;;;;;29.75;27.75;;;;;;;21.13;100.00;100725.88;5011180;28;20046;-85
2023/06/12 06:54:39;;;;;;;27.50;25.33;;;;;;;20.93;100.00;100734.81;5002314;28;20046;-87
2023/06/12 06:57:13;;;;;;;29.73;26.92;;;;;;;21.40;100.00;100730.09;4997276;28;20054;-78
2023/06/12 06:59:43;;;;;;;27.80;25.65;;;;;;;21.56;100.00;100723.53;5001165;28;20115;-85
2023/06/12 07:02:09;;;;;;;27.27;25.27;;;;;;;21.81;100.00;100724.47;5009929;28;20058;-86
2023/06/12 07:04:39;;;;;;;27.42;25.42;;;;;;;21.19;100.00;100729.34;5006893;28;20674;-85
2023/06/12 07:07:06;;;;;;;26.45;24.33;;;;;;;21.48;100.00;100732.22;5011784;28;20112;-85
2023/06/12 07:09:33;;;;;;;26.83;24.60;;;;;;;21.77;100.00;100734.22;5004935;28;20046;-87
2023/06/12 07:12:00;;;;;;;25.95;23.83;;;;;;;21.85;100.00;100722.81;5004116;28;20453;-86
2023/06/12 07:14:27;;;;;;;26.70;24.80;;;;;;;22.04;100.00;100722.94;5012054;28;20434;-86
2023/06/12 07:16:54;;;;;;;26.77;24.77;;;;;;;22.18;100.00;100724.75;5010481;28;20056;-86
2023/06/12 07:19:21;;;;;;;25.10;23.17;;;;;;;22.00;100.00;100722.72;5008476;28;20136;-87
2023/06/12 07:21:50;;;;;;;25.75;23.58;;;;;;;21.99;100.00;100712.97;5011584;28;20474;-87
2023/06/12 07:24:18;;;;;;;27.15;25.15;;;;;;;22.46;100.00;100719.63;5012338;28;20140;-86
2023/06/12 07:26:45;;;;;;;27.77;25.35;;;;;;;22.67;100.00;100722.16;4999412;28;20524;-86
2023/06/12 07:29:11;;;;;;;25.83;23.38;;;;;;;22.55;100.00;100726.03;5012062;28;20430;-78
2023/06/12 07:31:38;;;;;;;25.48;23.27;;;;;;;22.66;100.00;100725.94;4994359;28;20046;-78
2023/06/12 07:34:05;;;;;;;24.80;22.88;;;;;;;22.75;100.00;100724.22;4995642;28;20061;-78
2023/06/12 07:36:35;;;;;;;25.92;23.58;;;;;;;21.66;100.00;100731.56;4991152;28;20050;-78
2023/06/12 07:39:03;;;;;;;24.98;22.92;;;;;;;22.48;100.00;100733.69;4993147;28;20046;-78
2023/06/12 07:41:30;;;;;;;24.60;22.60;;;;;;;22.14;100.00;100726.38;5009396;28;20057;-78
2023/06/12 07:43:57;;;;;;;24.75;22.60;;;;;;;21.92;100.00;100724.09;5011515;28;20069;-78
2023/06/12 07:46:24;;;;;;;24.60;22.80;;;;;;;22.86;100.00;100723.00;4992262;28;20051;-78
2023/06/12 07:48:51;;;;;;;24.30;22.25;;;;;;;23.01;100.00;100731.00;5009591;28;20046;-77
2023/06/12 07:51:23;;;;;;;23.83;21.95;;;;;;;23.23;100.00;100732.34;4995835;28;20050;-78
2023/06/12 07:53:50;;;;;;;23.00;21.02;;;;;;;22.77;100.00;100739.09;4992620;28;20054;-78
2023/06/12 07:56:18;;;;;;;22.67;20.73;;;;;;;22.70;100.00;100735.91;5000094;28;20057;-78
2023/06/12 07:58:46;;;;;;;23.23;21.42;;;;;;;23.28;100.00;100732.31;5014192;28;20050;-78
2023/06/12 08:01:48;;;;;;;22.63;20.60;;;;;;;23.38;100.00;100734.06;5005804;28;20042;-78
2023/06/12 08:04:21;;;;;;;23.48;21.42;;;;;;;22.73;100.00;100726.41;4959947;28;20070;-77
2023/06/12 08:06:49;;;;;;;24.50;22.50;;;;;;;21.95;100.00;100731.66;4964110;28;20062;-78
2023/06/12 08:09:16;;;;;;;26.00;24.00;;;;;;;22.85;100.00;100741.16;4973341;28;20089;-78
2023/06/12 08:11:45;;;;;;;24.45;22.45;;;;;;;22.58;100.00;100730.88;4974507;28;20055;-79
2023/06/12 08:14:12;;;;;;;25.15;22.98;;;;;;;22.07;100.00;100739.41;4974494;28;20050;-78
2023/06/12 08:16:40;;;;;;;25.20;23.13;;;;;;;22.62;100.00;100733.81;4960439;28;20138;-78
2023/06/12 08:19:07;;;;;;;24.42;22.30;;;;;;;22.78;100.00;100737.19;4974952;28;20054;-78
2023/06/12 08:21:34;;;;;;;22.80;21.10;;;;;;;22.65;100.00;100727.84;4956317;29;20439;-78
2023/06/12 08:24:01;;;;;;;23.52;21.83;;;;;;;23.39;100.00;100728.38;4972782;28;20073;-78
2023/06/12 08:26:28;;;;;;;25.13;22.85;;;;;;;23.71;100.00;100726.88;4970273;28;20232;-78
2023/06/12 08:28:57;;;;;;;24.20;22.25;;;;;;;23.05;100.00;100728.50;4971177;28;20043;-77
2023/06/12 08:31:37;;;;;;;25.17;22.35;;;;;;;23.20;100.00;100736.44;4973394;28;20054;-78
2023/06/12 08:34:04;;;;;;;24.52;22.10;;;;;;;23.29;100.00;100725.78;4969861;28;20078;-77
2023/06/12 08:36:31;;;;;;;23.23;21.13;;;;;;;23.81;100.00;100737.56;4963431;28;20059;-78
2023/06/12 08:38:58;;;;;;;22.10;19.92;;;;;;;23.53;100.00;100726.53;4958178;28;20051;-78
2023/06/12 08:41:27;;;;;;;23.77;21.48;;;;;;;23.45;100.00;100727.22;4974679;28;20482;-78
2023/06/12 08:43:59;;;;;;;25.17;22.83;;;;;;;23.14;100.00;100721.34;4972418;28;20070;-78
2023/06/12 08:46:30;;;;;;;25.17;22.95;;;;;;;23.42;100.00;100719.66;4973903;28;20062;-78
2023/06/12 08:48:59;;;;;;;24.23;22.48;;;;;;;23.20;100.00;100703.94;4973385;28;20130;-77
2023/06/12 08:51:26;;;;;;;23.95;21.67;;;;;;;23.62;100.00;100707.72;4973723;28;20055;-77
2023/06/12 08:53:54;;;;;;;25.88;21.35;;;;;;;23.35;100.00;100707.56;4955543;28;20106;-77
2023/06/12 08:56:22;;;;;;;25.48;21.92;;;;;;;23.69;100.00;100705.50;4969773;28;20173;-78
2023/06/12 08:58:50;;;;;;;22.73;20.58;;;;;;;23.97;100.00;100698.25;4974927;28;20502;-78
2023/06/12 09:01:19;;;;;;;24.05;21.73;;;;;;;24.14;100.00;100705.03;4975186;28;20072;-78
2023/06/12 09:03:54;;;;;;;22.42;20.52;;;;;;;24.42;100.00;100703.25;4990906;28;20081;-77
2023/06/12 09:06:21;;;;;;;23.50;21.50;;;;;;;24.24;100.00;100699.47;5007370;28;20046;-86
2023/06/12 09:08:48;;;;;;;23.35;21.30;;;;;;;24.11;100.00;100692.06;5001802;28;20108;-87
2023/06/12 09:11:15;;;;;;;24.40;22.30;;;;;;;23.61;100.00;100691.75;5010539;28;20045;-77
2023/06/12 09:13:51;;;;;;;24.75;22.90;;;;;;;23.73;100.00;100690.22;5013383;28;20049;-86
2023/06/12 09:16:34;;;;;;;24.65;22.45;;;;;;;24.22;100.00;100688.88;5009494;28;20056;-88
2023/06/12 09:19:09;;;;;;;22.75;20.98;;;;;;;24.23;100.00;100682.34;4999773;28;20073;-77
2023/06/12 09:21:37;;;;;;;23.08;21.17;;;;;;;24.49;100.00;100675.72;5001828;28;20046;-85
2023/06/12 09:24:04;;;;;;;25.70;23.55;;;;;;;24.29;100.00;100674.94;5013518;28;20050;-85
2023/06/12 09:26:31;;;;;;;25.00;22.88;;;;;;;24.54;100.00;100675.59;4998512;28;20506;-78
2023/06/12 09:28:59;;;;;;;24.92;22.80;;;;;;;24.70;100.00;100662.53;4994721;28;20434;-78
2023/06/12 09:31:25;;;;;;;24.95;22.67;;;;;;;24.82;100.00;100671.00;5010796;28;20518;-85
2023/06/12 09:33:54;;;;;;;24.88;22.58;;;;;;;24.70;100.00;100674.22;5008173;28;20058;-85
2023/06/12 09:36:27;;;;;;;25.90;23.23;;;;;;;24.70;100.00;100674.22;5010176;28;20520;-87
2023/06/12 09:38:54;;;;;;;23.85;21.80;;;;;;;24.90;100.00;100664.81;5013194;28;20437;-86
2023/06/12 09:41:24;;;;;;;25.58;23.10;;;;;;;25.13;100.00;100661.13;5013411;28;20434;-78
2023/06/12 09:44:04;;;;;;;24.13;21.90;;;;;;;25.21;100.00;100653.38;5011504;28;20133;-84
2023/06/12 09:46:31;;;;;;;23.77;21.92;;;;;;;25.43;100.00;100658.81;5013314;28;20045;-85
2023/06/12 09:49:00;;;;;;;24.42;22.30;;;;;;;25.43;100.00;100653.38;5000898;28;20081;-78
2023/06/12 09:51:32;;;;;;;24.95;22.65;;;;;;;25.46;100.00;100654.69;5006301;28;20104;-84
2023/06/12 09:54:01;;;;;;;24.20;22.00;;;;;;;25.25;100.00;100657.06;5012783;28;20049;-78
2023/06/12 09:56:29;;;;;;;21.27;19.20;;;;;;;25.15;100.00;100657.31;5003983;28;20053;-86
2023/06/12 09:58:59;;;;;;;21.23;19.13;;;;;;;25.10;100.00;100652.75;4994328;28;20411;-86
2023/06/12 10:01:27;;;;;;;22.35;20.23;;;;;;;25.50;100.00;100651.03;5010319;28;20050;-86
2023/06/12 10:03:59;;;;;;;25.38;21.33;;;;;;;25.50;100.00;100642.88;4999256;28;20112;-78
2023/06/12 10:06:28;;;;;;;22.98;21.08;;;;;;;25.24;100.00;100648.13;4999112;28;20439;-86
2023/06/12 10:08:57;;;;;;;21.98;20.10;;;;;;;25.08;100.00;100639.47;5003650;28;20050;-80
2023/06/12 10:11:26;;;;;;;21.73;19.65;;;;;;;25.38;100.00;100641.81;5003001;28;20522;-78
2023/06/12 10:13:54;;;;;;;21.75;19.92;;;;;;;24.92;100.00;100644.41;5013078;28;20108;-86
2023/06/12 10:16:21;;;;;;;21.60;19.60;;;;;;;25.46;100.00;100636.47;4998908;28;20521;-86
2023/06/12 10:18:49;;;;;;;23.38;21.67;;;;;;;24.85;100.00;100635.88;4993228;28;20057;-85
2023/06/12 10:21:16;;;;;;;21.92;20.23;;;;;;;25.58;100.00;100630.47;4993511;28;20046;-86
2023/06/12 10:23:46;;;;;;;21.40;19.80;;;;;;;25.23;100.00;100640.25;4993429;28;20530;-86
2023/06/12 10:26:14;;;;;;;22.85;20.75;;;;;;;25.38;100.00;100625.50;4995986;28;20423;-78
2023/06/12 10:28:41;;;;;;;24.75;20.50;;;;;;;25.40;100.00;100631.47;5012585;28;20300;-87
2023/06/12 10:31:12;;;;;;;22.33;20.50;;;;;;;25.45;100.00;100634.06;5005345;28;20399;-86
2023/06/12 10:33:59;;;;;;;24.27;22.02;;;;;;;25.24;100.00;100636.44;5001808;28;20068;-86
2023/06/12 10:36:44;;;;;;;21.90;20.00;;;;;;;25.15;100.00;100641.00;5002078;28;20060;-85
2023/06/12 10:39:17;;;;;;;21.92;19.88;;;;;;;25.26;100.00;100624.13;5010575;28;20554;-86
2023/06/12 10:41:55;;;;;;;23.67;21.67;;;;;;;25.63;100.00;100624.09;5007607;28;20054;-85
2023/06/12 10:44:36;;;;;;;22.13;20.33;;;;;;;25.48;100.00;100626.09;5005377;28;20042;-85
2023/06/12 10:47:03;;;;;;;24.73;20.52;;;;;;;25.77;100.00;100614.75;5006373;28;20050;-86
2023/06/12 10:50:05;;;;;;;21.75;19.98;;;;;;;25.00;100.00;100626.59;4993125;28;20047;-85
2023/06/12 10:52:53;;;;;;;21.00;19.08;;;;;;;25.32;100.00;100614.75;5011654;28;20125;-86
2023/06/12 10:55:23;;;;;;;22.23;20.02;;;;;;;25.55;100.00;100614.78;5007906;28;20041;-86
2023/06/12 10:57:52;;;;;;;22.48;20.52;;;;;;;25.51;100.00;100619.25;4993081;28;20055;-85
2023/06/12 11:00:31;;;;;;;22.05;20.13;;;;;;;25.27;100.00;100606.75;5011804;28;20045;-78
2023/06/12 11:03:00;;;;;;;23.02;20.73;;;;;;;25.67;100.00;100611.50;5001593;28;20053;-78
2023/06/12 11:05:28;;;;;;;22.13;20.02;;;;;;;25.19;100.00;100612.91;5009087;28;20457;-77
2023/06/12 11:07:57;;;;;;;23.08;20.80;;;;;;;25.21;100.00;100609.88;5010719;28;20505;-86
2023/06/12 11:10:32;;;;;;;22.90;20.95;;;;;;;25.84;100.00;100605.38;5005489;28;20125;-86
2023/06/12 11:13:00;;;;;;;24.88;22.35;;;;;;;25.52;100.00;100615.41;5008169;28;20050;-85
2023/06/12 11:15:27;;;;;;;22.92;21.02;;;;;;;24.70;100.00;100606.31;5003203;28;20069;-87
2023/06/12 11:18:08;;;;;;;24.75;22.70;;;;;;;25.54;100.00;100608.53;5011750;28;20083;-86
2023/06/12 11:20:53;;;;;;;26.27;24.30;;;;;;;25.66;100.00;100605.28;5008668;28;20046;-86